DBDHM ESSA-ESGG
Flight info
| Callsign | DBDHM |
|---|---|
| Flight time | 0h 41m |
| Altitude | 38000 |
| Route | ARS6G ARS N623 BEDLA N866 LAPSI DCT MOXAM MOXAM4S |
| Aircraft | C700/M-SBDGHM1RWXY/LB2 |
Departure
| Time | 2026-05-04 15:58 |
|---|---|
| Airport | Stockholm-Arlanda Airport (ESSA) |
Arrival
| Time | 2026-05-04 16:40 |
|---|---|
| Airport | Göteborg Landvetter Airport (ESGG) |
| Time | Latitude | Longitude | Altitude | Speed | Heading |
|---|---|---|---|---|---|
| 2026-05-04 15:38 | 59.64193 | 17.92164 | 132 ft | 0 kts | 144° |
| 2026-05-04 15:50 | 59.64199 | 17.92156 | 132 ft | 4 kts | 142° |
| 2026-05-04 15:50 | 59.64218 | 17.92119 | 132 ft | 4 kts | 121° |
| 2026-05-04 15:51 | 59.64227 | 17.92072 | 132 ft | 4 kts | 84° |
| 2026-05-04 15:51 | 59.64218 | 17.92031 | 132 ft | 4 kts | 27° |
| 2026-05-04 15:51 | 59.64194 | 17.92019 | 132 ft | 4 kts | 10° |
| 2026-05-04 15:51 | 59.64169 | 17.92010 | 132 ft | 2 kts | 9° |
| 2026-05-04 15:52 | 59.64167 | 17.92010 | 132 ft | 0 kts | 9° |
| 2026-05-04 15:54 | 59.64207 | 17.92023 | 132 ft | 11 kts | 9° |
| 2026-05-04 15:54 | 59.64300 | 17.92040 | 132 ft | 15 kts | 341° |
| 2026-05-04 15:54 | 59.64383 | 17.91921 | 132 ft | 17 kts | 12° |
| 2026-05-04 15:55 | 59.64509 | 17.91965 | 132 ft | 20 kts | 9° |
| 2026-05-04 15:55 | 59.64658 | 17.92019 | 132 ft | 24 kts | 10° |
| 2026-05-04 15:55 | 59.64830 | 17.92080 | 132 ft | 27 kts | 11° |
| 2026-05-04 15:55 | 59.65024 | 17.92152 | 132 ft | 30 kts | 11° |
| 2026-05-04 15:56 | 59.65237 | 17.92228 | 132 ft | 32 kts | 9° |
| 2026-05-04 15:56 | 59.65415 | 17.92294 | 132 ft | 26 kts | 12° |
| 2026-05-04 15:56 | 59.65602 | 17.92364 | 132 ft | 29 kts | 10° |
| 2026-05-04 15:56 | 59.65777 | 17.92404 | 132 ft | 13 kts | 328° |
| 2026-05-04 15:57 | 59.65779 | 17.92236 | 134 ft | 14 kts | 234° |
| 2026-05-04 15:57 | 59.65704 | 17.92100 | 136 ft | 16 kts | 223° |
| 2026-05-04 15:57 | 59.65590 | 17.91992 | 138 ft | 26 kts | 191° |
| 2026-05-04 15:57 | 59.65148 | 17.91833 | 137 ft | 112 kts | 190° |
| 2026-05-04 15:58 | 59.64123 | 17.91546 | 463 ft | 176 kts | 193° |
| 2026-05-04 15:58 | 59.62806 | 17.91116 | 1339 ft | 204 kts | 197° |
| 2026-05-04 15:58 | 59.61386 | 17.90144 | 2364 ft | 231 kts | 215° |
| 2026-05-04 15:58 | 59.60390 | 17.87883 | 3427 ft | 194 kts | 243° |
| 2026-05-04 15:59 | 59.59818 | 17.85724 | 4181 ft | 177 kts | 244° |
| 2026-05-04 15:59 | 59.59176 | 17.83311 | 5005 ft | 215 kts | 244° |
| 2026-05-04 15:59 | 59.58451 | 17.80593 | 5007 ft | 227 kts | 245° |
| 2026-05-04 15:59 | 59.57698 | 17.77691 | 5526 ft | 244 kts | 245° |
| 2026-05-04 16:00 | 59.57084 | 17.74673 | 7505 ft | 238 kts | 252° |
| 2026-05-04 16:00 | 59.56275 | 17.71740 | 9259 ft | 246 kts | 239° |
| 2026-05-04 16:00 | 59.55259 | 17.68904 | 10816 ft | 265 kts | 238° |
| 2026-05-04 16:00 | 59.54146 | 17.65896 | 12561 ft | 271 kts | 237° |
| 2026-05-04 16:01 | 59.52966 | 17.62727 | 13632 ft | 306 kts | 237° |
| 2026-05-04 16:01 | 59.51711 | 17.59324 | 13651 ft | 307 kts | 237° |
| 2026-05-04 16:01 | 59.50831 | 17.55650 | 13645 ft | 292 kts | 259° |
| 2026-05-04 16:01 | 59.51021 | 17.51713 | 13651 ft | 291 kts | 281° |
| 2026-05-04 16:02 | 59.51090 | 17.47757 | 13649 ft | 292 kts | 257° |
| 2026-05-04 16:02 | 59.50325 | 17.44075 | 13663 ft | 295 kts | 245° |
| 2026-05-04 16:02 | 59.48550 | 17.36811 | 13668 ft | 293 kts | 250° |
| 2026-05-04 16:03 | 59.47918 | 17.32989 | 13672 ft | 293 kts | 255° |
| 2026-05-04 16:03 | 59.47337 | 17.29151 | 13676 ft | 292 kts | 253° |
| 2026-05-04 16:03 | 59.46691 | 17.25351 | 13671 ft | 292 kts | 252° |
| 2026-05-04 16:03 | 59.46030 | 17.21625 | 13673 ft | 292 kts | 252° |
| 2026-05-04 16:04 | 59.45374 | 17.17833 | 13672 ft | 292 kts | 252° |
| 2026-05-04 16:04 | 59.44111 | 17.10455 | 16239 ft | 279 kts | 252° |
| 2026-05-04 16:04 | 59.43489 | 17.06758 | 17690 ft | 289 kts | 255° |
| 2026-05-04 16:05 | 59.43195 | 17.02819 | 19003 ft | 293 kts | 264° |
| 2026-05-04 16:05 | 59.43017 | 16.98793 | 20149 ft | 298 kts | 263° |
| 2026-05-04 16:05 | 59.42214 | 16.90765 | 22353 ft | 307 kts | 253° |
| 2026-05-04 16:06 | 59.41441 | 16.86822 | 23435 ft | 312 kts | 250° |
| 2026-05-04 16:06 | 59.39272 | 16.75994 | 25740 ft | 327 kts | 249° |
| 2026-05-04 16:07 | 59.37976 | 16.70557 | 26749 ft | 336 kts | 249° |
| 2026-05-04 16:07 | 59.34058 | 16.58648 | 29063 ft | 366 kts | 234° |
| 2026-05-04 16:08 | 59.32324 | 16.54924 | 29814 ft | 371 kts | 235° |
| 2026-05-04 16:08 | 59.27929 | 16.42422 | 31783 ft | 373 kts | 250° |
| 2026-05-04 16:09 | 59.26036 | 16.32895 | 33043 ft | 379 kts | 252° |
| 2026-05-04 16:09 | 59.23891 | 16.23575 | 34541 ft | 377 kts | 248° |
| 2026-05-04 16:10 | 59.21766 | 16.14181 | 35735 ft | 379 kts | 249° |
| 2026-05-04 16:11 | 59.18534 | 16.00018 | 37320 ft | 384 kts | 248° |
| 2026-05-04 16:11 | 59.17440 | 15.95222 | 37690 ft | 390 kts | 248° |
| 2026-05-04 16:12 | 59.13965 | 15.80106 | 37701 ft | 425 kts | 247° |
| 2026-05-04 16:12 | 59.10307 | 15.64314 | 37704 ft | 421 kts | 247° |
| 2026-05-04 16:13 | 59.05496 | 15.43722 | 37708 ft | 421 kts | 247° |
| 2026-05-04 16:14 | 59.01002 | 15.24669 | 37715 ft | 425 kts | 247° |
| 2026-05-04 16:16 | 58.94848 | 14.98839 | 37714 ft | 420 kts | 246° |
| 2026-05-04 16:16 | 58.91042 | 14.83449 | 36348 ft | 416 kts | 242° |
| 2026-05-04 16:17 | 58.87741 | 14.74497 | 35299 ft | 405 kts | 237° |
| 2026-05-04 16:18 | 58.82629 | 14.61559 | 33681 ft | 408 kts | 237° |
| 2026-05-04 16:18 | 58.80892 | 14.57211 | 32957 ft | 409 kts | 237° |
| 2026-05-04 16:19 | 58.75682 | 14.44162 | 30911 ft | 414 kts | 237° |
| 2026-05-04 16:19 | 58.72129 | 14.35317 | 29679 ft | 422 kts | 237° |
| 2026-05-04 16:20 | 58.66836 | 14.22204 | 27885 ft | 402 kts | 237° |
| 2026-05-04 16:20 | 58.63444 | 14.13820 | 26837 ft | 398 kts | 237° |
| 2026-05-04 16:21 | 58.58363 | 14.01343 | 25271 ft | 390 kts | 237° |
| 2026-05-04 16:22 | 58.55069 | 13.93298 | 24248 ft | 383 kts | 237° |
| 2026-05-04 16:22 | 58.50125 | 13.81253 | 22712 ft | 377 kts | 237° |
| 2026-05-04 16:23 | 58.45349 | 13.69729 | 21248 ft | 364 kts | 237° |
| 2026-05-04 16:24 | 58.39124 | 13.54783 | 19361 ft | 354 kts | 237° |
| 2026-05-04 16:25 | 58.36088 | 13.47532 | 18440 ft | 349 kts | 237° |
| 2026-05-04 16:26 | 58.30129 | 13.33363 | 16605 ft | 340 kts | 236° |
| 2026-05-04 16:26 | 58.25707 | 13.22874 | 15262 ft | 335 kts | 236° |
| 2026-05-04 16:27 | 58.22814 | 13.16038 | 14389 ft | 330 kts | 236° |
| 2026-05-04 16:28 | 58.18535 | 13.05951 | 13062 ft | 323 kts | 236° |
| 2026-05-04 16:28 | 58.14363 | 12.96159 | 11812 ft | 313 kts | 236° |
| 2026-05-04 16:29 | 58.09424 | 12.84836 | 10343 ft | 251 kts | 235° |
| 2026-05-04 16:30 | 58.06052 | 12.77254 | 9341 ft | 255 kts | 235° |
| 2026-05-04 16:31 | 58.03777 | 12.72120 | 8674 ft | 255 kts | 235° |
| 2026-05-04 16:31 | 58.00397 | 12.64510 | 7672 ft | 249 kts | 235° |
| 2026-05-04 16:32 | 57.97401 | 12.56722 | 6710 ft | 256 kts | 220° |
| 2026-05-04 16:33 | 57.94206 | 12.53618 | 6175 ft | 259 kts | 211° |
| 2026-05-04 16:33 | 57.90996 | 12.50634 | 5499 ft | 246 kts | 212° |
| 2026-05-04 16:34 | 57.88205 | 12.48079 | 4938 ft | 198 kts | 213° |
| 2026-05-04 16:34 | 57.87015 | 12.46970 | 4679 ft | 183 kts | 213° |
| 2026-05-04 16:35 | 57.83528 | 12.43776 | 3958 ft | 183 kts | 213° |
| 2026-05-04 16:35 | 57.80188 | 12.40695 | 3255 ft | 177 kts | 212° |
| 2026-05-04 16:36 | 57.79092 | 12.39696 | 3023 ft | 173 kts | 212° |
| 2026-05-04 16:36 | 57.76961 | 12.37735 | 2564 ft | 162 kts | 212° |
| 2026-05-04 16:37 | 57.75007 | 12.35935 | 2236 ft | 159 kts | 212° |
| 2026-05-04 16:37 | 57.74015 | 12.35041 | 2052 ft | 147 kts | 212° |
| 2026-05-04 16:37 | 57.72347 | 12.33509 | 1642 ft | 129 kts | 213° |
| 2026-05-04 16:38 | 57.70738 | 12.32041 | 1269 ft | 124 kts | 212° |
| 2026-05-04 16:39 | 57.68458 | 12.29968 | 753 ft | 123 kts | 211° |
| 2026-05-04 16:39 | 57.66991 | 12.28632 | 539 ft | 107 kts | 214° |
| 2026-05-04 16:40 | 57.66174 | 12.27923 | 510 ft | 0 kts | 141° |
| 2026-05-04 16:40 | 57.66115 | 12.28060 | 512 ft | 11 kts | 114° |
| 2026-05-04 16:41 | 57.66233 | 12.28280 | 514 ft | 15 kts | 25° |
| 2026-05-04 16:41 | 57.66483 | 12.28505 | 516 ft | 19 kts | 29° |
| 2026-05-04 16:42 | 57.66932 | 12.28908 | 521 ft | 29 kts | 25° |
| 2026-05-04 16:43 | 57.67257 | 12.29216 | 525 ft | 11 kts | 41° |
| 2026-05-04 16:43 | 57.67204 | 12.29506 | 525 ft | 8 kts | 115° |
| 2026-05-04 16:43 | 57.67231 | 12.29581 | 525 ft | 9 kts | 27° |
| 2026-05-04 16:44 | 57.67528 | 12.29912 | 528 ft | 5 kts | 25° |